sensor_id;sensor_type;location;lat;lon;timestamp;P1;durP1;ratioP1;P2;durP2;ratioP2
1779;SDS011;10019;46.670;14.260;2023-01-04T00:00:48;12.53;;;8.13;;
1779;SDS011;10019;46.670;14.260;2023-01-04T00:03:20;12.67;;;7.70;;
1779;SDS011;10019;46.670;14.260;2023-01-04T00:05:51;12.70;;;8.43;;
1779;SDS011;10019;46.670;14.260;2023-01-04T00:08:25;10.50;;;7.87;;
1779;SDS011;10019;46.670;14.260;2023-01-04T00:10:58;13.13;;;8.27;;
1779;SDS011;10019;46.670;14.260;2023-01-04T00:13:30;15.80;;;8.90;;
1779;SDS011;10019;46.670;14.260;2023-01-04T00:16:03;9.37;;;7.53;;
1779;SDS011;10019;46.670;14.260;2023-01-04T00:18:36;11.43;;;7.80;;
1779;SDS011;10019;46.670;14.260;2023-01-04T00:21:08;9.20;;;7.00;;
1779;SDS011;10019;46.670;14.260;2023-01-04T00:23:43;12.73;;;7.50;;
1779;SDS011;10019;46.670;14.260;2023-01-04T00:26:16;8.73;;;5.90;;
1779;SDS011;10019;46.670;14.260;2023-01-04T00:28:52;14.20;;;7.43;;
1779;SDS011;10019;46.670;14.260;2023-01-04T00:31:25;10.00;;;7.73;;
1779;SDS011;10019;46.670;14.260;2023-01-04T00:33:58;10.53;;;7.07;;
1779;SDS011;10019;46.670;14.260;2023-01-04T00:36:31;9.20;;;7.50;;
1779;SDS011;10019;46.670;14.260;2023-01-04T00:39:04;10.17;;;6.40;;
1779;SDS011;10019;46.670;14.260;2023-01-04T00:41:40;14.83;;;7.17;;
1779;SDS011;10019;46.670;14.260;2023-01-04T00:44:13;7.13;;;4.53;;
1779;SDS011;10019;46.670;14.260;2023-01-04T00:46:45;9.60;;;6.37;;
1779;SDS011;10019;46.670;14.260;2023-01-04T00:49:18;7.77;;;5.70;;
1779;SDS011;10019;46.670;14.260;2023-01-04T00:51:49;11.97;;;7.60;;
1779;SDS011;10019;46.670;14.260;2023-01-04T00:54:22;8.73;;;7.07;;
1779;SDS011;10019;46.670;14.260;2023-01-04T00:56:54;9.67;;;7.47;;
1779;SDS011;10019;46.670;14.260;2023-01-04T00:59:26;9.40;;;7.10;;
1779;SDS011;10019;46.670;14.260;2023-01-04T01:01:58;11.10;;;7.97;;
1779;SDS011;10019;46.670;14.260;2023-01-04T01:04:30;17.73;;;7.87;;
1779;SDS011;10019;46.670;14.260;2023-01-04T01:07:02;9.53;;;7.17;;
1779;SDS011;10019;46.670;14.260;2023-01-04T01:09:35;8.67;;;7.77;;
1779;SDS011;10019;46.670;14.260;2023-01-04T01:12:06;8.43;;;7.53;;
1779;SDS011;10019;46.670;14.260;2023-01-04T01:14:38;11.03;;;7.67;;
1779;SDS011;10019;46.670;14.260;2023-01-04T01:17:10;9.30;;;7.57;;
1779;SDS011;10019;46.670;14.260;2023-01-04T01:19:41;11.17;;;7.50;;
1779;SDS011;10019;46.670;14.260;2023-01-04T01:22:13;9.20;;;7.80;;
1779;SDS011;10019;46.670;14.260;2023-01-04T01:24:47;10.77;;;7.30;;
1779;SDS011;10019;46.670;14.260;2023-01-04T01:27:19;9.37;;;7.07;;
1779;SDS011;10019;46.670;14.260;2023-01-04T01:29:51;9.30;;;7.10;;
1779;SDS011;10019;46.670;14.260;2023-01-04T01:32:22;9.13;;;7.80;;
1779;SDS011;10019;46.670;14.260;2023-01-04T01:34:54;8.47;;;6.90;;
1779;SDS011;10019;46.670;14.260;2023-01-04T01:37:26;13.23;;;6.60;;
1779;SDS011;10019;46.670;14.260;2023-01-04T01:39:59;8.50;;;6.10;;
1779;SDS011;10019;46.670;14.260;2023-01-04T01:42:30;8.43;;;6.57;;
1779;SDS011;10019;46.670;14.260;2023-01-04T01:45:03;10.13;;;6.60;;
1779;SDS011;10019;46.670;14.260;2023-01-04T01:47:40;25.23;;;6.73;;
1779;SDS011;10019;46.670;14.260;2023-01-04T01:50:23;13.43;;;7.57;;
1779;SDS011;10019;46.670;14.260;2023-01-04T01:52:58;10.10;;;7.40;;
1779;SDS011;10019;46.670;14.260;2023-01-04T01:55:32;7.90;;;6.40;;
1779;SDS011;10019;46.670;14.260;2023-01-04T01:58:04;11.00;;;6.90;;
1779;SDS011;10019;46.670;14.260;2023-01-04T02:00:37;11.83;;;6.87;;
1779;SDS011;10019;46.670;14.260;2023-01-04T02:03:11;7.60;;;6.80;;
1779;SDS011;10019;46.670;14.260;2023-01-04T02:05:45;23.13;;;7.80;;
1779;SDS011;10019;46.670;14.260;2023-01-04T02:08:18;7.17;;;6.43;;
1779;SDS011;10019;46.670;14.260;2023-01-04T02:10:53;9.13;;;6.60;;
1779;SDS011;10019;46.670;14.260;2023-01-04T02:13:26;8.23;;;6.40;;
1779;SDS011;10019;46.670;14.260;2023-01-04T02:16:21;8.67;;;7.10;;
1779;SDS011;10019;46.670;14.260;2023-01-04T02:19:00;10.30;;;7.00;;
1779;SDS011;10019;46.670;14.260;2023-01-04T02:21:39;7.70;;;6.30;;
1779;SDS011;10019;46.670;14.260;2023-01-04T02:24:40;6.90;;;5.80;;
1779;SDS011;10019;46.670;14.260;2023-01-04T02:27:26;8.90;;;6.53;;
1779;SDS011;10019;46.670;14.260;2023-01-04T02:33:23;10.80;;;7.33;;
1779;SDS011;10019;46.670;14.260;2023-01-04T02:36:01;9.97;;;7.47;;
1779;SDS011;10019;46.670;14.260;2023-01-04T02:38:40;10.03;;;6.80;;
1779;SDS011;10019;46.670;14.260;2023-01-04T02:41:19;8.20;;;6.33;;
1779;SDS011;10019;46.670;14.260;2023-01-04T02:43:54;7.97;;;6.60;;
1779;SDS011;10019;46.670;14.260;2023-01-04T02:46:47;8.43;;;7.03;;
1779;SDS011;10019;46.670;14.260;2023-01-04T02:49:23;8.67;;;7.50;;
1779;SDS011;10019;46.670;14.260;2023-01-04T02:52:12;11.73;;;7.70;;
1779;SDS011;10019;46.670;14.260;2023-01-04T02:54:44;7.93;;;7.10;;
1779;SDS011;10019;46.670;14.260;2023-01-04T02:57:23;10.70;;;8.03;;
1779;SDS011;10019;46.670;14.260;2023-01-04T03:00:03;9.27;;;6.70;;
1779;SDS011;10019;46.670;14.260;2023-01-04T03:02:46;12.17;;;7.40;;
1779;SDS011;10019;46.670;14.260;2023-01-04T03:05:47;11.87;;;7.67;;
1779;SDS011;10019;46.670;14.260;2023-01-04T03:08:42;12.47;;;7.93;;
1779;SDS011;10019;46.670;14.260;2023-01-04T03:11:19;10.57;;;8.20;;
1779;SDS011;10019;46.670;14.260;2023-01-04T03:14:09;10.17;;;7.53;;
1779;SDS011;10019;46.670;14.260;2023-01-04T03:16:44;11.43;;;9.17;;
1779;SDS011;10019;46.670;14.260;2023-01-04T03:19:17;11.83;;;8.53;;
1779;SDS011;10019;46.670;14.260;2023-01-04T03:22:17;10.00;;;7.83;;
1779;SDS011;10019;46.670;14.260;2023-01-04T03:25:07;11.20;;;8.60;;
1779;SDS011;10019;46.670;14.260;2023-01-04T03:27:57;11.63;;;7.93;;
1779;SDS011;10019;46.670;14.260;2023-01-04T03:30:50;12.10;;;8.30;;
1779;SDS011;10019;46.670;14.260;2023-01-04T03:33:42;13.10;;;8.27;;
1779;SDS011;10019;46.670;14.260;2023-01-04T03:36:35;9.43;;;8.10;;
1779;SDS011;10019;46.670;14.260;2023-01-04T03:39:15;15.30;;;7.57;;
1779;SDS011;10019;46.670;14.260;2023-01-04T03:42:04;7.77;;;6.93;;
1779;SDS011;10019;46.670;14.260;2023-01-04T03:45:01;8.73;;;7.00;;
1779;SDS011;10019;46.670;14.260;2023-01-04T03:48:01;9.80;;;7.47;;
1779;SDS011;10019;46.670;14.260;2023-01-04T03:50:54;10.17;;;7.50;;
1779;SDS011;10019;46.670;14.260;2023-01-04T03:53:30;16.20;;;10.47;;
1779;SDS011;10019;46.670;14.260;2023-01-04T03:56:04;12.60;;;9.43;;
1779;SDS011;10019;46.670;14.260;2023-01-04T03:58:37;13.67;;;10.03;;
1779;SDS011;10019;46.670;14.260;2023-01-04T04:01:09;18.00;;;10.10;;
1779;SDS011;10019;46.670;14.260;2023-01-04T04:03:41;12.03;;;9.07;;
1779;SDS011;10019;46.670;14.260;2023-01-04T04:06:30;13.67;;;8.63;;
1779;SDS011;10019;46.670;14.260;2023-01-04T04:09:20;14.47;;;9.20;;
1779;SDS011;10019;46.670;14.260;2023-01-04T04:11:52;12.53;;;8.77;;
1779;SDS011;10019;46.670;14.260;2023-01-04T04:14:24;11.10;;;8.53;;
1779;SDS011;10019;46.670;14.260;2023-01-04T04:16:56;9.77;;;8.63;;
1779;SDS011;10019;46.670;14.260;2023-01-04T04:19:27;12.43;;;8.07;;
1779;SDS011;10019;46.670;14.260;2023-01-04T04:21:59;16.47;;;9.40;;
1779;SDS011;10019;46.670;14.260;2023-01-04T04:24:32;10.87;;;8.47;;
1779;SDS011;10019;46.670;14.260;2023-01-04T04:27:04;10.83;;;8.33;;
1779;SDS011;10019;46.670;14.260;2023-01-04T04:29:35;11.17;;;7.70;;
1779;SDS011;10019;46.670;14.260;2023-01-04T04:32:07;10.30;;;8.63;;
1779;SDS011;10019;46.670;14.260;2023-01-04T04:34:39;11.53;;;8.90;;
1779;SDS011;10019;46.670;14.260;2023-01-04T04:37:10;13.40;;;9.43;;
1779;SDS011;10019;46.670;14.260;2023-01-04T04:39:43;11.00;;;8.40;;
1779;SDS011;10019;46.670;14.260;2023-01-04T04:42:15;9.60;;;7.67;;
1779;SDS011;10019;46.670;14.260;2023-01-04T04:44:46;12.60;;;8.60;;
1779;SDS011;10019;46.670;14.260;2023-01-04T04:47:18;12.47;;;8.67;;
1779;SDS011;10019;46.670;14.260;2023-01-04T04:49:49;14.23;;;9.20;;
1779;SDS011;10019;46.670;14.260;2023-01-04T04:52:21;9.20;;;8.00;;
1779;SDS011;10019;46.670;14.260;2023-01-04T04:54:54;11.57;;;8.97;;
1779;SDS011;10019;46.670;14.260;2023-01-04T04:57:26;10.97;;;7.53;;
1779;SDS011;10019;46.670;14.260;2023-01-04T04:59:57;12.90;;;9.53;;
1779;SDS011;10019;46.670;14.260;2023-01-04T05:02:29;11.83;;;9.77;;
1779;SDS011;10019;46.670;14.260;2023-01-04T05:05:00;9.80;;;8.23;;
1779;SDS011;10019;46.670;14.260;2023-01-04T05:07:32;11.13;;;9.07;;
1779;SDS011;10019;46.670;14.260;2023-01-04T05:10:06;10.43;;;8.27;;
1779;SDS011;10019;46.670;14.260;2023-01-04T05:12:38;10.30;;;7.97;;
1779;SDS011;10019;46.670;14.260;2023-01-04T05:15:28;10.97;;;7.40;;
1779;SDS011;10019;46.670;14.260;2023-01-04T05:18:01;10.90;;;7.60;;
1779;SDS011;10019;46.670;14.260;2023-01-04T05:20:33;10.67;;;8.27;;
1779;SDS011;10019;46.670;14.260;2023-01-04T05:23:05;9.67;;;8.10;;
1779;SDS011;10019;46.670;14.260;2023-01-04T05:25:39;12.07;;;8.47;;
1779;SDS011;10019;46.670;14.260;2023-01-04T05:28:11;14.57;;;9.40;;
1779;SDS011;10019;46.670;14.260;2023-01-04T05:30:43;10.00;;;8.30;;
1779;SDS011;10019;46.670;14.260;2023-01-04T05:33:21;12.17;;;9.73;;
1779;SDS011;10019;46.670;14.260;2023-01-04T05:35:53;12.33;;;9.00;;
1779;SDS011;10019;46.670;14.260;2023-01-04T05:38:26;14.90;;;10.10;;
1779;SDS011;10019;46.670;14.260;2023-01-04T05:40:59;18.77;;;12.87;;
1779;SDS011;10019;46.670;14.260;2023-01-04T05:43:31;20.47;;;14.00;;
1779;SDS011;10019;46.670;14.260;2023-01-04T05:46:03;14.97;;;10.10;;
1779;SDS011;10019;46.670;14.260;2023-01-04T05:48:34;11.77;;;8.90;;
1779;SDS011;10019;46.670;14.260;2023-01-04T05:51:06;10.77;;;8.40;;
1779;SDS011;10019;46.670;14.260;2023-01-04T05:53:38;11.30;;;8.20;;
1779;SDS011;10019;46.670;14.260;2023-01-04T05:56:12;12.37;;;7.93;;
1779;SDS011;10019;46.670;14.260;2023-01-04T05:58:44;9.37;;;7.57;;
1779;SDS011;10019;46.670;14.260;2023-01-04T06:01:15;10.63;;;8.13;;
1779;SDS011;10019;46.670;14.260;2023-01-04T06:03:47;9.50;;;8.47;;
1779;SDS011;10019;46.670;14.260;2023-01-04T06:06:19;9.87;;;7.63;;
1779;SDS011;10019;46.670;14.260;2023-01-04T06:08:51;11.03;;;6.93;;
1779;SDS011;10019;46.670;14.260;2023-01-04T06:11:24;9.03;;;6.50;;
1779;SDS011;10019;46.670;14.260;2023-01-04T06:13:56;8.70;;;7.70;;
1779;SDS011;10019;46.670;14.260;2023-01-04T06:16:27;12.07;;;7.43;;
1779;SDS011;10019;46.670;14.260;2023-01-04T06:18:59;9.83;;;7.13;;
1779;SDS011;10019;46.670;14.260;2023-01-04T06:21:31;11.07;;;8.07;;
1779;SDS011;10019;46.670;14.260;2023-01-04T06:24:03;8.60;;;7.70;;
1779;SDS011;10019;46.670;14.260;2023-01-04T06:26:36;10.17;;;7.50;;
1779;SDS011;10019;46.670;14.260;2023-01-04T06:29:08;9.67;;;7.53;;
1779;SDS011;10019;46.670;14.260;2023-01-04T06:31:41;14.37;;;8.60;;
1779;SDS011;10019;46.670;14.260;2023-01-04T06:34:13;10.17;;;8.20;;
1779;SDS011;10019;46.670;14.260;2023-01-04T06:36:45;9.57;;;7.80;;
1779;SDS011;10019;46.670;14.260;2023-01-04T06:39:16;10.80;;;8.20;;
1779;SDS011;10019;46.670;14.260;2023-01-04T06:41:49;9.23;;;7.83;;
1779;SDS011;10019;46.670;14.260;2023-01-04T06:44:21;8.73;;;6.90;;
1779;SDS011;10019;46.670;14.260;2023-01-04T06:46:53;13.47;;;9.20;;
1779;SDS011;10019;46.670;14.260;2023-01-04T06:49:24;15.07;;;10.13;;
1779;SDS011;10019;46.670;14.260;2023-01-04T06:51:56;15.53;;;11.20;;
1779;SDS011;10019;46.670;14.260;2023-01-04T06:54:28;19.00;;;11.40;;
1779;SDS011;10019;46.670;14.260;2023-01-04T06:57:03;12.90;;;10.50;;
1779;SDS011;10019;46.670;14.260;2023-01-04T06:59:35;13.03;;;8.73;;
1779;SDS011;10019;46.670;14.260;2023-01-04T07:02:06;14.57;;;9.50;;
1779;SDS011;10019;46.670;14.260;2023-01-04T07:04:38;12.90;;;8.70;;
1779;SDS011;10019;46.670;14.260;2023-01-04T07:07:10;8.50;;;7.50;;
1779;SDS011;10019;46.670;14.260;2023-01-04T07:09:41;11.20;;;8.17;;
1779;SDS011;10019;46.670;14.260;2023-01-04T07:12:14;10.43;;;7.80;;
1779;SDS011;10019;46.670;14.260;2023-01-04T07:14:46;11.63;;;8.60;;
1779;SDS011;10019;46.670;14.260;2023-01-04T07:17:18;8.60;;;7.73;;
1779;SDS011;10019;46.670;14.260;2023-01-04T07:19:49;12.43;;;9.03;;
1779;SDS011;10019;46.670;14.260;2023-01-04T07:22:21;13.00;;;8.73;;
1779;SDS011;10019;46.670;14.260;2023-01-04T07:24:53;11.07;;;8.20;;
1779;SDS011;10019;46.670;14.260;2023-01-04T07:27:26;10.20;;;9.10;;
1779;SDS011;10019;46.670;14.260;2023-01-04T07:29:58;10.90;;;7.97;;
1779;SDS011;10019;46.670;14.260;2023-01-04T07:32:30;10.13;;;7.33;;
1779;SDS011;10019;46.670;14.260;2023-01-04T07:35:01;11.07;;;7.83;;
1779;SDS011;10019;46.670;14.260;2023-01-04T07:37:33;12.87;;;8.63;;
1779;SDS011;10019;46.670;14.260;2023-01-04T07:40:05;18.30;;;11.20;;
1779;SDS011;10019;46.670;14.260;2023-01-04T07:42:39;16.77;;;9.90;;
1779;SDS011;10019;46.670;14.260;2023-01-04T07:45:11;13.00;;;9.00;;
1779;SDS011;10019;46.670;14.260;2023-01-04T07:47:43;11.60;;;9.07;;
1779;SDS011;10019;46.670;14.260;2023-01-04T07:50:14;11.30;;;8.90;;
1779;SDS011;10019;46.670;14.260;2023-01-04T07:52:46;13.07;;;9.83;;
1779;SDS011;10019;46.670;14.260;2023-01-04T07:55:18;10.73;;;8.83;;
1779;SDS011;10019;46.670;14.260;2023-01-04T07:57:52;15.00;;;10.37;;
1779;SDS011;10019;46.670;14.260;2023-01-04T08:00:24;16.20;;;11.00;;
1779;SDS011;10019;46.670;14.260;2023-01-04T08:02:56;11.70;;;9.80;;
1779;SDS011;10019;46.670;14.260;2023-01-04T08:05:30;15.47;;;11.47;;
1779;SDS011;10019;46.670;14.260;2023-01-04T08:08:02;12.60;;;8.13;;
1779;SDS011;10019;46.670;14.260;2023-01-04T08:10:34;17.20;;;9.00;;
1779;SDS011;10019;46.670;14.260;2023-01-04T08:13:07;11.13;;;7.80;;
1779;SDS011;10019;46.670;14.260;2023-01-04T08:15:39;9.20;;;8.20;;
1779;SDS011;10019;46.670;14.260;2023-01-04T08:18:11;8.67;;;7.60;;
1779;SDS011;10019;46.670;14.260;2023-01-04T08:20:43;11.23;;;7.47;;
1779;SDS011;10019;46.670;14.260;2023-01-04T08:23:14;11.23;;;7.43;;
1779;SDS011;10019;46.670;14.260;2023-01-04T08:25:46;12.67;;;8.23;;
1779;SDS011;10019;46.670;14.260;2023-01-04T08:28:19;8.57;;;7.50;;
1779;SDS011;10019;46.670;14.260;2023-01-04T08:30:51;10.47;;;7.83;;
1779;SDS011;10019;46.670;14.260;2023-01-04T08:33:23;10.80;;;8.10;;
1779;SDS011;10019;46.670;14.260;2023-01-04T08:36:04;9.07;;;6.93;;
1779;SDS011;10019;46.670;14.260;2023-01-04T08:38:37;9.40;;;8.43;;
1779;SDS011;10019;46.670;14.260;2023-01-04T08:41:09;10.80;;;8.20;;
1779;SDS011;10019;46.670;14.260;2023-01-04T08:43:42;10.97;;;8.87;;
1779;SDS011;10019;46.670;14.260;2023-01-04T08:46:14;9.73;;;7.80;;
1779;SDS011;10019;46.670;14.260;2023-01-04T08:48:45;10.30;;;8.63;;
1779;SDS011;10019;46.670;14.260;2023-01-04T08:51:17;10.73;;;9.00;;
1779;SDS011;10019;46.670;14.260;2023-01-04T08:53:49;9.80;;;8.30;;
1779;SDS011;10019;46.670;14.260;2023-01-04T08:56:21;10.40;;;8.20;;
1779;SDS011;10019;46.670;14.260;2023-01-04T08:58:54;11.43;;;9.30;;
1779;SDS011;10019;46.670;14.260;2023-01-04T09:01:25;13.00;;;8.57;;
1779;SDS011;10019;46.670;14.260;2023-01-04T09:03:57;8.97;;;7.70;;
1779;SDS011;10019;46.670;14.260;2023-01-04T09:06:29;11.87;;;9.23;;
1779;SDS011;10019;46.670;14.260;2023-01-04T09:09:01;9.80;;;8.10;;
1779;SDS011;10019;46.670;14.260;2023-01-04T09:11:33;11.27;;;8.90;;
1779;SDS011;10019;46.670;14.260;2023-01-04T09:14:06;11.20;;;9.33;;
1779;SDS011;10019;46.670;14.260;2023-01-04T09:16:39;10.33;;;8.50;;
1779;SDS011;10019;46.670;14.260;2023-01-04T09:19:11;9.90;;;8.07;;
1779;SDS011;10019;46.670;14.260;2023-01-04T09:21:42;13.70;;;9.37;;
1779;SDS011;10019;46.670;14.260;2023-01-04T09:24:14;11.97;;;9.20;;
1779;SDS011;10019;46.670;14.260;2023-01-04T09:26:46;12.53;;;9.53;;
1779;SDS011;10019;46.670;14.260;2023-01-04T09:29:19;13.93;;;10.43;;
1779;SDS011;10019;46.670;14.260;2023-01-04T09:31:51;12.77;;;9.87;;
1779;SDS011;10019;46.670;14.260;2023-01-04T09:34:23;13.60;;;9.77;;
1779;SDS011;10019;46.670;14.260;2023-01-04T09:36:54;10.50;;;9.37;;
1779;SDS011;10019;46.670;14.260;2023-01-04T09:39:26;9.97;;;8.60;;
1779;SDS011;10019;46.670;14.260;2023-01-04T09:41:59;10.53;;;8.27;;
1779;SDS011;10019;46.670;14.260;2023-01-04T09:44:36;9.30;;;8.30;;
1779;SDS011;10019;46.670;14.260;2023-01-04T09:47:10;10.20;;;8.40;;
1779;SDS011;10019;46.670;14.260;2023-01-04T09:49:46;10.07;;;7.73;;
1779;SDS011;10019;46.670;14.260;2023-01-04T09:52:21;11.47;;;8.90;;
1779;SDS011;10019;46.670;14.260;2023-01-04T09:54:54;10.47;;;8.90;;
1779;SDS011;10019;46.670;14.260;2023-01-04T09:57:29;9.43;;;8.40;;
1779;SDS011;10019;46.670;14.260;2023-01-04T10:00:05;9.83;;;8.50;;
1779;SDS011;10019;46.670;14.260;2023-01-04T10:02:44;11.93;;;8.03;;
1779;SDS011;10019;46.670;14.260;2023-01-04T10:05:18;10.97;;;7.80;;
1779;SDS011;10019;46.670;14.260;2023-01-04T10:07:52;7.63;;;6.83;;
1779;SDS011;10019;46.670;14.260;2023-01-04T10:10:28;9.67;;;7.67;;
1779;SDS011;10019;46.670;14.260;2023-01-04T10:13:13;9.00;;;8.10;;
1779;SDS011;10019;46.670;14.260;2023-01-04T10:15:58;9.57;;;8.43;;
1779;SDS011;10019;46.670;14.260;2023-01-04T10:18:36;11.20;;;8.00;;
1779;SDS011;10019;46.670;14.260;2023-01-04T10:21:17;9.13;;;7.93;;
1779;SDS011;10019;46.670;14.260;2023-01-04T10:24:08;10.90;;;8.60;;
1779;SDS011;10019;46.670;14.260;2023-01-04T10:26:45;11.10;;;8.67;;
1779;SDS011;10019;46.670;14.260;2023-01-04T10:29:29;9.57;;;8.10;;
1779;SDS011;10019;46.670;14.260;2023-01-04T10:32:13;10.23;;;8.00;;
1779;SDS011;10019;46.670;14.260;2023-01-04T10:34:47;8.73;;;7.47;;
1779;SDS011;10019;46.670;14.260;2023-01-04T10:37:20;11.80;;;8.97;;
1779;SDS011;10019;46.670;14.260;2023-01-04T10:39:55;9.20;;;7.83;;
1779;SDS011;10019;46.670;14.260;2023-01-04T10:42:30;9.70;;;7.97;;
1779;SDS011;10019;46.670;14.260;2023-01-04T10:45:08;10.73;;;7.83;;
1779;SDS011;10019;46.670;14.260;2023-01-04T10:47:51;8.93;;;7.53;;
1779;SDS011;10019;46.670;14.260;2023-01-04T10:50:29;10.27;;;8.23;;
1779;SDS011;10019;46.670;14.260;2023-01-04T10:53:05;9.43;;;8.07;;
1779;SDS011;10019;46.670;14.260;2023-01-04T10:55:41;11.40;;;7.30;;
1779;SDS011;10019;46.670;14.260;2023-01-04T10:58:16;11.20;;;7.40;;
1779;SDS011;10019;46.670;14.260;2023-01-04T11:00:52;8.90;;;7.30;;
1779;SDS011;10019;46.670;14.260;2023-01-04T11:03:28;9.67;;;7.00;;
1779;SDS011;10019;46.670;14.260;2023-01-04T11:06:06;9.87;;;7.00;;
1779;SDS011;10019;46.670;14.260;2023-01-04T11:08:44;8.20;;;7.30;;
1779;SDS011;10019;46.670;14.260;2023-01-04T11:11:18;8.73;;;6.80;;
1779;SDS011;10019;46.670;14.260;2023-01-04T11:13:52;6.83;;;6.13;;
1779;SDS011;10019;46.670;14.260;2023-01-04T11:16:24;8.10;;;5.43;;
1779;SDS011;10019;46.670;14.260;2023-01-04T11:18:58;7.97;;;6.60;;
1779;SDS011;10019;46.670;14.260;2023-01-04T11:21:30;7.20;;;6.50;;
1779;SDS011;10019;46.670;14.260;2023-01-04T11:24:07;6.57;;;5.73;;
1779;SDS011;10019;46.670;14.260;2023-01-04T11:26:42;6.63;;;5.93;;
1779;SDS011;10019;46.670;14.260;2023-01-04T11:29:21;7.77;;;5.70;;
1779;SDS011;10019;46.670;14.260;2023-01-04T11:31:58;7.20;;;5.97;;
1779;SDS011;10019;46.670;14.260;2023-01-04T11:34:45;5.73;;;5.20;;
1779;SDS011;10019;46.670;14.260;2023-01-04T11:37:22;7.67;;;5.97;;
1779;SDS011;10019;46.670;14.260;2023-01-04T11:40:12;7.73;;;6.33;;
1779;SDS011;10019;46.670;14.260;2023-01-04T11:42:51;6.33;;;5.70;;
1779;SDS011;10019;46.670;14.260;2023-01-04T11:45:24;8.73;;;5.70;;
1779;SDS011;10019;46.670;14.260;2023-01-04T11:47:59;6.77;;;5.77;;
1779;SDS011;10019;46.670;14.260;2023-01-04T11:50:38;9.20;;;6.47;;
1779;SDS011;10019;46.670;14.260;2023-01-04T11:53:21;9.73;;;5.30;;
1779;SDS011;10019;46.670;14.260;2023-01-04T11:56:11;8.87;;;5.60;;
1779;SDS011;10019;46.670;14.260;2023-01-04T11:59:09;6.27;;;5.60;;
1779;SDS011;10019;46.670;14.260;2023-01-04T12:01:43;6.00;;;5.40;;
1779;SDS011;10019;46.670;14.260;2023-01-04T12:04:17;7.10;;;6.40;;
1779;SDS011;10019;46.670;14.260;2023-01-04T12:06:53;7.43;;;5.40;;
1779;SDS011;10019;46.670;14.260;2023-01-04T12:09:27;5.90;;;5.27;;
1779;SDS011;10019;46.670;14.260;2023-01-04T12:12:00;7.10;;;5.97;;
1779;SDS011;10019;46.670;14.260;2023-01-04T12:14:34;7.77;;;5.17;;
1779;SDS011;10019;46.670;14.260;2023-01-04T12:17:10;6.63;;;5.27;;
1779;SDS011;10019;46.670;14.260;2023-01-04T12:19:43;6.73;;;5.60;;
1779;SDS011;10019;46.670;14.260;2023-01-04T12:22:19;7.63;;;5.80;;
1779;SDS011;10019;46.670;14.260;2023-01-04T12:24:52;6.10;;;5.30;;
1779;SDS011;10019;46.670;14.260;2023-01-04T12:27:24;8.77;;;5.80;;
1779;SDS011;10019;46.670;14.260;2023-01-04T12:29:56;7.40;;;6.27;;
1779;SDS011;10019;46.670;14.260;2023-01-04T12:47:52;6.83;;;5.43;;
1779;SDS011;10019;46.670;14.260;2023-01-04T12:53:51;8.00;;;6.23;;
1779;SDS011;10019;46.670;14.260;2023-01-04T12:59:36;7.00;;;5.80;;
1779;SDS011;10019;46.670;14.260;2023-01-04T13:02:18;7.43;;;5.77;;
1779;SDS011;10019;46.670;14.260;2023-01-04T13:04:52;6.50;;;5.10;;
1779;SDS011;10019;46.670;14.260;2023-01-04T13:07:26;9.13;;;5.77;;
1779;SDS011;10019;46.670;14.260;2023-01-04T13:10:00;6.40;;;5.27;;
1779;SDS011;10019;46.670;14.260;2023-01-04T13:15:33;8.17;;;5.27;;
1779;SDS011;10019;46.670;14.260;2023-01-04T13:18:23;8.90;;;5.77;;
1779;SDS011;10019;46.670;14.260;2023-01-04T13:21:07;5.90;;;5.30;;
1779;SDS011;10019;46.670;14.260;2023-01-04T13:23:45;5.83;;;5.20;;
1779;SDS011;10019;46.670;14.260;2023-01-04T13:26:32;7.77;;;6.17;;
1779;SDS011;10019;46.670;14.260;2023-01-04T13:29:06;9.20;;;5.90;;
1779;SDS011;10019;46.670;14.260;2023-01-04T13:31:44;7.10;;;5.40;;
1779;SDS011;10019;46.670;14.260;2023-01-04T13:34:18;8.67;;;6.10;;
1779;SDS011;10019;46.670;14.260;2023-01-04T13:36:55;8.17;;;5.77;;
1779;SDS011;10019;46.670;14.260;2023-01-04T13:39:43;7.40;;;5.60;;
1779;SDS011;10019;46.670;14.260;2023-01-04T13:42:21;8.37;;;6.60;;
1779;SDS011;10019;46.670;14.260;2023-01-04T13:45:04;6.30;;;5.70;;
1779;SDS011;10019;46.670;14.260;2023-01-04T13:47:46;7.90;;;5.73;;
1779;SDS011;10019;46.670;14.260;2023-01-04T13:50:25;8.90;;;5.93;;
1779;SDS011;10019;46.670;14.260;2023-01-04T13:53:02;8.43;;;6.37;;
1779;SDS011;10019;46.670;14.260;2023-01-04T13:55:35;9.00;;;5.40;;
1779;SDS011;10019;46.670;14.260;2023-01-04T13:58:15;7.40;;;5.90;;
1779;SDS011;10019;46.670;14.260;2023-01-04T14:00:49;7.47;;;5.40;;
1779;SDS011;10019;46.670;14.260;2023-01-04T14:03:25;7.40;;;5.07;;
1779;SDS011;10019;46.670;14.260;2023-01-04T14:06:10;6.67;;;5.57;;
1779;SDS011;10019;46.670;14.260;2023-01-04T14:08:49;7.50;;;5.83;;
1779;SDS011;10019;46.670;14.260;2023-01-04T14:11:23;6.90;;;5.97;;
1779;SDS011;10019;46.670;14.260;2023-01-04T14:14:15;6.27;;;5.20;;
1779;SDS011;10019;46.670;14.260;2023-01-04T14:19:55;8.00;;;6.47;;
1779;SDS011;10019;46.670;14.260;2023-01-04T14:22:37;7.43;;;5.73;;
1779;SDS011;10019;46.670;14.260;2023-01-04T14:25:30;8.33;;;5.97;;
1779;SDS011;10019;46.670;14.260;2023-01-04T14:28:23;8.47;;;6.83;;
1779;SDS011;10019;46.670;14.260;2023-01-04T14:34:04;8.17;;;6.20;;
1779;SDS011;10019;46.670;14.260;2023-01-04T14:36:40;7.27;;;6.17;;
1779;SDS011;10019;46.670;14.260;2023-01-04T14:39:20;8.37;;;6.50;;
1779;SDS011;10019;46.670;14.260;2023-01-04T14:41:55;8.23;;;5.67;;
1779;SDS011;10019;46.670;14.260;2023-01-04T14:44:29;7.73;;;5.97;;
1779;SDS011;10019;46.670;14.260;2023-01-04T14:47:03;10.53;;;6.10;;
1779;SDS011;10019;46.670;14.260;2023-01-04T14:49:36;6.50;;;5.83;;
1779;SDS011;10019;46.670;14.260;2023-01-04T14:52:10;9.43;;;6.60;;
1779;SDS011;10019;46.670;14.260;2023-01-04T14:54:42;11.73;;;7.37;;
1779;SDS011;10019;46.670;14.260;2023-01-04T14:57:14;9.07;;;6.13;;
1779;SDS011;10019;46.670;14.260;2023-01-04T14:59:46;10.33;;;5.97;;
1779;SDS011;10019;46.670;14.260;2023-01-04T15:02:18;6.90;;;5.33;;
1779;SDS011;10019;46.670;14.260;2023-01-04T15:04:52;9.33;;;5.77;;
1779;SDS011;10019;46.670;14.260;2023-01-04T15:07:30;8.07;;;5.47;;
1779;SDS011;10019;46.670;14.260;2023-01-04T15:10:05;8.47;;;5.70;;
1779;SDS011;10019;46.670;14.260;2023-01-04T15:12:38;5.73;;;4.77;;
1779;SDS011;10019;46.670;14.260;2023-01-04T15:15:10;18.93;;;5.60;;
1779;SDS011;10019;46.670;14.260;2023-01-04T15:17:42;8.60;;;4.77;;
1779;SDS011;10019;46.670;14.260;2023-01-04T15:20:14;7.17;;;5.43;;
1779;SDS011;10019;46.670;14.260;2023-01-04T15:22:47;9.37;;;6.07;;
1779;SDS011;10019;46.670;14.260;2023-01-04T15:25:19;9.00;;;6.13;;
1779;SDS011;10019;46.670;14.260;2023-01-04T15:27:51;8.40;;;5.30;;
1779;SDS011;10019;46.670;14.260;2023-01-04T15:30:23;7.20;;;6.17;;
1779;SDS011;10019;46.670;14.260;2023-01-04T15:32:55;8.17;;;5.67;;
1779;SDS011;10019;46.670;14.260;2023-01-04T15:35:26;12.53;;;5.37;;
1779;SDS011;10019;46.670;14.260;2023-01-04T15:37:59;5.60;;;5.00;;
1779;SDS011;10019;46.670;14.260;2023-01-04T15:40:31;6.13;;;4.63;;
1779;SDS011;10019;46.670;14.260;2023-01-04T15:43:04;5.57;;;4.90;;
1779;SDS011;10019;46.670;14.260;2023-01-04T15:45:37;7.27;;;4.97;;
1779;SDS011;10019;46.670;14.260;2023-01-04T15:48:10;10.30;;;5.00;;
1779;SDS011;10019;46.670;14.260;2023-01-04T15:50:42;7.17;;;5.20;;
1779;SDS011;10019;46.670;14.260;2023-01-04T15:53:15;6.70;;;5.37;;
1779;SDS011;10019;46.670;14.260;2023-01-04T15:55:46;7.60;;;4.97;;
1779;SDS011;10019;46.670;14.260;2023-01-04T15:58:20;8.23;;;6.40;;
1779;SDS011;10019;46.670;14.260;2023-01-04T16:00:52;10.80;;;6.50;;
1779;SDS011;10019;46.670;14.260;2023-01-04T16:03:25;8.47;;;6.83;;